sensor_id;sensor_type;location;lat;lon;timestamp;temperature;humidity
19330;DHT22;9799;48.214;16.388;2022-08-25T00:01:40;22.70;99.90
19330;DHT22;9799;48.214;16.388;2022-08-25T00:05:04;22.70;99.90
19330;DHT22;9799;48.214;16.388;2022-08-25T00:08:25;22.70;99.90
19330;DHT22;9799;48.214;16.388;2022-08-25T00:11:47;22.70;99.90
19330;DHT22;9799;48.214;16.388;2022-08-25T00:15:09;22.70;99.90
19330;DHT22;9799;48.214;16.388;2022-08-25T00:18:30;22.70;99.90
19330;DHT22;9799;48.214;16.388;2022-08-25T00:21:53;22.70;99.90
19330;DHT22;9799;48.214;16.388;2022-08-25T00:25:15;22.60;99.90
19330;DHT22;9799;48.214;16.388;2022-08-25T00:28:37;22.60;99.90
19330;DHT22;9799;48.214;16.388;2022-08-25T00:31:58;22.60;99.90
19330;DHT22;9799;48.214;16.388;2022-08-25T00:35:20;22.60;99.90
19330;DHT22;9799;48.214;16.388;2022-08-25T00:38:44;22.60;99.90
19330;DHT22;9799;48.214;16.388;2022-08-25T00:42:08;22.60;99.90
19330;DHT22;9799;48.214;16.388;2022-08-25T00:45:29;22.60;99.90
19330;DHT22;9799;48.214;16.388;2022-08-25T00:48:59;22.50;99.90
19330;DHT22;9799;48.214;16.388;2022-08-25T00:52:24;22.50;99.90
19330;DHT22;9799;48.214;16.388;2022-08-25T00:55:48;22.50;99.90
19330;DHT22;9799;48.214;16.388;2022-08-25T00:59:10;22.50;99.90
19330;DHT22;9799;48.214;16.388;2022-08-25T01:02:32;22.50;99.90
19330;DHT22;9799;48.214;16.388;2022-08-25T01:05:54;22.50;99.90
19330;DHT22;9799;48.214;16.388;2022-08-25T01:09:16;22.50;99.90
19330;DHT22;9799;48.214;16.388;2022-08-25T01:12:39;22.50;99.90
19330;DHT22;9799;48.214;16.388;2022-08-25T01:16:01;22.50;99.90
19330;DHT22;9799;48.214;16.388;2022-08-25T01:19:23;22.60;99.90
19330;DHT22;9799;48.214;16.388;2022-08-25T01:22:47;22.60;99.90
19330;DHT22;9799;48.214;16.388;2022-08-25T01:26:11;22.60;99.90
19330;DHT22;9799;48.214;16.388;2022-08-25T01:29:33;22.60;99.90
19330;DHT22;9799;48.214;16.388;2022-08-25T01:32:54;22.60;99.90
19330;DHT22;9799;48.214;16.388;2022-08-25T01:36:17;22.60;99.90
19330;DHT22;9799;48.214;16.388;2022-08-25T01:39:41;22.50;99.90
19330;DHT22;9799;48.214;16.388;2022-08-25T01:43:11;22.60;99.90
19330;DHT22;9799;48.214;16.388;2022-08-25T01:46:36;22.60;99.90
19330;DHT22;9799;48.214;16.388;2022-08-25T01:49:58;22.60;99.90
19330;DHT22;9799;48.214;16.388;2022-08-25T01:53:22;22.50;99.90
19330;DHT22;9799;48.214;16.388;2022-08-25T01:56:47;22.40;99.90
19330;DHT22;9799;48.214;16.388;2022-08-25T02:00:10;22.40;99.90
19330;DHT22;9799;48.214;16.388;2022-08-25T02:03:35;22.50;99.90
19330;DHT22;9799;48.214;16.388;2022-08-25T02:06:58;22.50;99.90
19330;DHT22;9799;48.214;16.388;2022-08-25T02:10:19;22.40;99.90
19330;DHT22;9799;48.214;16.388;2022-08-25T02:13:42;22.40;99.90
19330;DHT22;9799;48.214;16.388;2022-08-25T02:17:04;22.40;99.90
19330;DHT22;9799;48.214;16.388;2022-08-25T02:20:25;22.40;99.90
19330;DHT22;9799;48.214;16.388;2022-08-25T02:23:48;22.50;99.90
19330;DHT22;9799;48.214;16.388;2022-08-25T02:27:09;22.50;99.90
19330;DHT22;9799;48.214;16.388;2022-08-25T02:30:32;22.50;99.90
19330;DHT22;9799;48.214;16.388;2022-08-25T02:33:53;22.50;99.90
19330;DHT22;9799;48.214;16.388;2022-08-25T02:37:15;22.50;99.90
19330;DHT22;9799;48.214;16.388;2022-08-25T02:40:36;22.50;99.90
19330;DHT22;9799;48.214;16.388;2022-08-25T02:43:58;22.50;99.90
19330;DHT22;9799;48.214;16.388;2022-08-25T02:47:22;22.50;99.90
19330;DHT22;9799;48.214;16.388;2022-08-25T02:50:45;22.40;99.90
19330;DHT22;9799;48.214;16.388;2022-08-25T02:54:06;22.40;99.90
19330;DHT22;9799;48.214;16.388;2022-08-25T02:57:28;22.40;99.90
19330;DHT22;9799;48.214;16.388;2022-08-25T03:00:49;22.40;99.90
19330;DHT22;9799;48.214;16.388;2022-08-25T03:04:12;22.40;99.90
19330;DHT22;9799;48.214;16.388;2022-08-25T03:07:33;22.40;99.90
19330;DHT22;9799;48.214;16.388;2022-08-25T03:10:55;22.40;99.90
19330;DHT22;9799;48.214;16.388;2022-08-25T03:14:16;22.40;99.90
19330;DHT22;9799;48.214;16.388;2022-08-25T03:17:37;22.40;99.90
19330;DHT22;9799;48.214;16.388;2022-08-25T03:20:59;22.40;99.90
19330;DHT22;9799;48.214;16.388;2022-08-25T03:24:22;22.30;99.90
19330;DHT22;9799;48.214;16.388;2022-08-25T03:27:43;22.30;99.90
19330;DHT22;9799;48.214;16.388;2022-08-25T03:31:04;22.30;99.90
19330;DHT22;9799;48.214;16.388;2022-08-25T03:34:26;22.30;99.90
19330;DHT22;9799;48.214;16.388;2022-08-25T03:37:49;22.30;99.90
19330;DHT22;9799;48.214;16.388;2022-08-25T03:41:15;22.30;99.90
19330;DHT22;9799;48.214;16.388;2022-08-25T03:44:37;22.30;99.90
19330;DHT22;9799;48.214;16.388;2022-08-25T03:47:58;22.30;99.90
19330;DHT22;9799;48.214;16.388;2022-08-25T03:51:21;22.30;99.90
19330;DHT22;9799;48.214;16.388;2022-08-25T03:54:44;22.30;99.90
19330;DHT22;9799;48.214;16.388;2022-08-25T03:58:05;22.30;99.90
19330;DHT22;9799;48.214;16.388;2022-08-25T04:01:27;22.20;99.90
19330;DHT22;9799;48.214;16.388;2022-08-25T04:04:48;22.20;99.90
19330;DHT22;9799;48.214;16.388;2022-08-25T04:08:10;22.20;99.90
19330;DHT22;9799;48.214;16.388;2022-08-25T04:11:32;22.20;99.90
19330;DHT22;9799;48.214;16.388;2022-08-25T04:14:53;22.20;99.90
19330;DHT22;9799;48.214;16.388;2022-08-25T04:18:14;22.20;99.90
19330;DHT22;9799;48.214;16.388;2022-08-25T04:21:37;22.20;99.90
19330;DHT22;9799;48.214;16.388;2022-08-25T04:24:59;22.20;99.90
19330;DHT22;9799;48.214;16.388;2022-08-25T04:28:22;22.20;99.90
19330;DHT22;9799;48.214;16.388;2022-08-25T04:31:44;22.20;99.90
19330;DHT22;9799;48.214;16.388;2022-08-25T04:35:07;22.20;99.90
19330;DHT22;9799;48.214;16.388;2022-08-25T04:38:28;22.20;99.90
19330;DHT22;9799;48.214;16.388;2022-08-25T04:41:50;22.20;99.90
19330;DHT22;9799;48.214;16.388;2022-08-25T04:45:12;22.20;99.90
19330;DHT22;9799;48.214;16.388;2022-08-25T04:48:34;22.20;99.90
19330;DHT22;9799;48.214;16.388;2022-08-25T04:51:55;22.20;99.90
19330;DHT22;9799;48.214;16.388;2022-08-25T04:55:17;22.10;99.90
19330;DHT22;9799;48.214;16.388;2022-08-25T04:58:39;22.10;99.90
19330;DHT22;9799;48.214;16.388;2022-08-25T05:02:03;22.20;99.90
19330;DHT22;9799;48.214;16.388;2022-08-25T05:05:25;22.10;99.90
19330;DHT22;9799;48.214;16.388;2022-08-25T05:08:46;22.10;99.90
19330;DHT22;9799;48.214;16.388;2022-08-25T05:12:08;22.10;99.90
19330;DHT22;9799;48.214;16.388;2022-08-25T05:15:29;22.10;99.90
19330;DHT22;9799;48.214;16.388;2022-08-25T05:19:06;22.10;99.90
19330;DHT22;9799;48.214;16.388;2022-08-25T05:22:28;22.00;99.90
19330;DHT22;9799;48.214;16.388;2022-08-25T05:25:50;22.10;99.90
19330;DHT22;9799;48.214;16.388;2022-08-25T05:29:12;22.10;99.90
19330;DHT22;9799;48.214;16.388;2022-08-25T05:32:34;22.10;99.90
19330;DHT22;9799;48.214;16.388;2022-08-25T05:35:57;22.20;99.90
19330;DHT22;9799;48.214;16.388;2022-08-25T05:39:18;22.20;99.90
19330;DHT22;9799;48.214;16.388;2022-08-25T05:42:39;22.20;99.90
19330;DHT22;9799;48.214;16.388;2022-08-25T05:46:00;22.30;99.90
19330;DHT22;9799;48.214;16.388;2022-08-25T05:49:22;22.30;99.90
19330;DHT22;9799;48.214;16.388;2022-08-25T05:52:44;22.30;99.90
19330;DHT22;9799;48.214;16.388;2022-08-25T05:56:06;22.30;99.90
19330;DHT22;9799;48.214;16.388;2022-08-25T05:59:27;22.30;99.90
19330;DHT22;9799;48.214;16.388;2022-08-25T06:02:49;22.20;99.90
19330;DHT22;9799;48.214;16.388;2022-08-25T06:06:10;22.10;99.90
19330;DHT22;9799;48.214;16.388;2022-08-25T06:09:33;22.10;99.90
19330;DHT22;9799;48.214;16.388;2022-08-25T06:12:55;22.20;99.90
19330;DHT22;9799;48.214;16.388;2022-08-25T06:16:16;22.20;99.90
19330;DHT22;9799;48.214;16.388;2022-08-25T06:19:37;22.30;99.90
19330;DHT22;9799;48.214;16.388;2022-08-25T06:22:58;22.30;99.90
19330;DHT22;9799;48.214;16.388;2022-08-25T06:26:21;22.40;99.90
19330;DHT22;9799;48.214;16.388;2022-08-25T06:29:43;22.40;99.90
19330;DHT22;9799;48.214;16.388;2022-08-25T06:33:04;22.40;99.90
19330;DHT22;9799;48.214;16.388;2022-08-25T06:36:26;22.30;99.90
19330;DHT22;9799;48.214;16.388;2022-08-25T06:39:47;22.40;99.90
19330;DHT22;9799;48.214;16.388;2022-08-25T06:43:09;22.50;99.90
19330;DHT22;9799;48.214;16.388;2022-08-25T06:46:30;22.50;99.90
19330;DHT22;9799;48.214;16.388;2022-08-25T06:49:51;22.50;99.90
19330;DHT22;9799;48.214;16.388;2022-08-25T06:53:12;22.50;99.90
19330;DHT22;9799;48.214;16.388;2022-08-25T06:56:34;22.50;99.90
19330;DHT22;9799;48.214;16.388;2022-08-25T06:59:57;22.60;99.90
19330;DHT22;9799;48.214;16.388;2022-08-25T07:03:18;22.60;99.90
19330;DHT22;9799;48.214;16.388;2022-08-25T07:06:40;22.60;99.90
19330;DHT22;9799;48.214;16.388;2022-08-25T07:10:01;22.50;99.90
19330;DHT22;9799;48.214;16.388;2022-08-25T07:13:22;22.60;99.90
19330;DHT22;9799;48.214;16.388;2022-08-25T07:16:46;22.60;99.90
19330;DHT22;9799;48.214;16.388;2022-08-25T07:20:08;22.60;99.90
19330;DHT22;9799;48.214;16.388;2022-08-25T07:23:29;22.70;99.90
19330;DHT22;9799;48.214;16.388;2022-08-25T07:26:51;23.00;99.90
19330;DHT22;9799;48.214;16.388;2022-08-25T07:30:12;22.90;99.90
19330;DHT22;9799;48.214;16.388;2022-08-25T07:33:35;22.90;99.90
19330;DHT22;9799;48.214;16.388;2022-08-25T07:36:57;22.90;99.90
19330;DHT22;9799;48.214;16.388;2022-08-25T07:40:20;23.00;99.90
19330;DHT22;9799;48.214;16.388;2022-08-25T07:43:41;22.90;99.90
19330;DHT22;9799;48.214;16.388;2022-08-25T07:47:03;22.90;99.90
19330;DHT22;9799;48.214;16.388;2022-08-25T07:50:26;22.90;99.90
19330;DHT22;9799;48.214;16.388;2022-08-25T07:53:48;22.90;99.90
19330;DHT22;9799;48.214;16.388;2022-08-25T07:57:09;22.90;99.90
19330;DHT22;9799;48.214;16.388;2022-08-25T08:00:31;23.00;99.90
19330;DHT22;9799;48.214;16.388;2022-08-25T08:03:53;23.10;99.90
19330;DHT22;9799;48.214;16.388;2022-08-25T08:07:17;23.30;99.90
19330;DHT22;9799;48.214;16.388;2022-08-25T08:10:39;23.50;99.90
19330;DHT22;9799;48.214;16.388;2022-08-25T08:14:02;23.40;99.90
19330;DHT22;9799;48.214;16.388;2022-08-25T08:17:24;23.20;99.90
19330;DHT22;9799;48.214;16.388;2022-08-25T08:20:46;23.20;99.90
19330;DHT22;9799;48.214;16.388;2022-08-25T08:24:09;23.30;99.90
19330;DHT22;9799;48.214;16.388;2022-08-25T08:27:30;23.60;99.90
19330;DHT22;9799;48.214;16.388;2022-08-25T08:30:51;23.70;99.90
19330;DHT22;9799;48.214;16.388;2022-08-25T08:34:12;23.80;99.90
19330;DHT22;9799;48.214;16.388;2022-08-25T08:37:34;24.00;99.90
19330;DHT22;9799;48.214;16.388;2022-08-25T08:41:04;24.30;99.90
19330;DHT22;9799;48.214;16.388;2022-08-25T08:45:02;24.20;99.90
19330;DHT22;9799;48.214;16.388;2022-08-25T08:48:39;24.10;99.90
19330;DHT22;9799;48.214;16.388;2022-08-25T08:52:04;24.00;99.90
19330;DHT22;9799;48.214;16.388;2022-08-25T08:55:31;24.00;99.90
19330;DHT22;9799;48.214;16.388;2022-08-25T08:58:56;24.00;99.90
19330;DHT22;9799;48.214;16.388;2022-08-25T09:02:24;24.10;99.90
19330;DHT22;9799;48.214;16.388;2022-08-25T09:05:49;24.10;99.90
19330;DHT22;9799;48.214;16.388;2022-08-25T09:09:14;24.20;99.90
19330;DHT22;9799;48.214;16.388;2022-08-25T09:12:40;24.80;99.90
19330;DHT22;9799;48.214;16.388;2022-08-25T09:16:12;25.00;99.90
19330;DHT22;9799;48.214;16.388;2022-08-25T09:20:24;25.00;99.90
19330;DHT22;9799;48.214;16.388;2022-08-25T09:24:03;25.10;99.90
19330;DHT22;9799;48.214;16.388;2022-08-25T09:27:33;25.20;99.90
19330;DHT22;9799;48.214;16.388;2022-08-25T09:30:59;25.40;99.90
19330;DHT22;9799;48.214;16.388;2022-08-25T09:34:26;25.70;99.90
19330;DHT22;9799;48.214;16.388;2022-08-25T09:37:55;25.80;99.90
19330;DHT22;9799;48.214;16.388;2022-08-25T09:41:33;25.70;99.90
19330;DHT22;9799;48.214;16.388;2022-08-25T09:44:54;25.90;99.90
19330;DHT22;9799;48.214;16.388;2022-08-25T09:48:21;26.00;99.90
19330;DHT22;9799;48.214;16.388;2022-08-25T09:51:44;25.80;99.90
19330;DHT22;9799;48.214;16.388;2022-08-25T09:55:26;25.30;99.90
19330;DHT22;9799;48.214;16.388;2022-08-25T09:58:49;25.00;99.90
19330;DHT22;9799;48.214;16.388;2022-08-25T10:02:22;25.00;99.90
19330;DHT22;9799;48.214;16.388;2022-08-25T10:05:58;25.10;99.90
19330;DHT22;9799;48.214;16.388;2022-08-25T10:09:27;25.40;99.90
19330;DHT22;9799;48.214;16.388;2022-08-25T10:12:50;25.60;99.90
19330;DHT22;9799;48.214;16.388;2022-08-25T10:16:22;25.30;99.90
19330;DHT22;9799;48.214;16.388;2022-08-25T10:19:43;25.20;99.90
19330;DHT22;9799;48.214;16.388;2022-08-25T10:23:09;25.50;99.90
19330;DHT22;9799;48.214;16.388;2022-08-25T10:26:46;26.10;99.90
19330;DHT22;9799;48.214;16.388;2022-08-25T10:30:16;26.20;99.90
19330;DHT22;9799;48.214;16.388;2022-08-25T10:33:48;26.00;99.90
19330;DHT22;9799;48.214;16.388;2022-08-25T10:37:26;26.20;99.90
19330;DHT22;9799;48.214;16.388;2022-08-25T10:40:53;26.50;99.90
19330;DHT22;9799;48.214;16.388;2022-08-25T10:44:22;26.50;99.90
19330;DHT22;9799;48.214;16.388;2022-08-25T10:48:23;26.20;99.90
19330;DHT22;9799;48.214;16.388;2022-08-25T10:51:51;25.90;99.90
19330;DHT22;9799;48.214;16.388;2022-08-25T10:55:19;26.20;99.90
19330;DHT22;9799;48.214;16.388;2022-08-25T10:58:55;26.50;99.90
19330;DHT22;9799;48.214;16.388;2022-08-25T11:02:45;26.70;99.90
19330;DHT22;9799;48.214;16.388;2022-08-25T11:06:16;26.50;99.90
19330;DHT22;9799;48.214;16.388;2022-08-25T11:09:40;26.50;99.90
19330;DHT22;9799;48.214;16.388;2022-08-25T11:13:08;26.70;99.90
19330;DHT22;9799;48.214;16.388;2022-08-25T11:16:38;26.70;99.90
19330;DHT22;9799;48.214;16.388;2022-08-25T11:20:06;26.60;99.90
19330;DHT22;9799;48.214;16.388;2022-08-25T11:23:36;26.80;99.90
19330;DHT22;9799;48.214;16.388;2022-08-25T11:26:59;26.70;99.90
19330;DHT22;9799;48.214;16.388;2022-08-25T11:30:20;26.80;99.90
19330;DHT22;9799;48.214;16.388;2022-08-25T11:33:42;27.00;99.90
19330;DHT22;9799;48.214;16.388;2022-08-25T11:37:11;27.30;99.90
19330;DHT22;9799;48.214;16.388;2022-08-25T11:40:42;27.20;99.90
19330;DHT22;9799;48.214;16.388;2022-08-25T11:44:31;27.40;99.90
19330;DHT22;9799;48.214;16.388;2022-08-25T11:48:08;27.50;99.90
19330;DHT22;9799;48.214;16.388;2022-08-25T11:51:39;27.60;99.90
19330;DHT22;9799;48.214;16.388;2022-08-25T11:55:06;27.60;99.90
19330;DHT22;9799;48.214;16.388;2022-08-25T11:58:42;27.20;99.90
19330;DHT22;9799;48.214;16.388;2022-08-25T12:02:05;27.40;99.90
19330;DHT22;9799;48.214;16.388;2022-08-25T12:05:49;27.70;99.90
19330;DHT22;9799;48.214;16.388;2022-08-25T12:09:19;27.70;99.90
19330;DHT22;9799;48.214;16.388;2022-08-25T12:13:03;27.90;99.90
19330;DHT22;9799;48.214;16.388;2022-08-25T12:16:40;28.10;99.90
19330;DHT22;9799;48.214;16.388;2022-08-25T12:20:02;28.20;99.90
19330;DHT22;9799;48.214;16.388;2022-08-25T12:23:27;28.30;99.90
19330;DHT22;9799;48.214;16.388;2022-08-25T12:26:54;28.10;99.90
19330;DHT22;9799;48.214;16.388;2022-08-25T12:30:20;27.90;99.90
19330;DHT22;9799;48.214;16.388;2022-08-25T12:33:51;27.70;99.90
19330;DHT22;9799;48.214;16.388;2022-08-25T12:37:16;27.60;99.90
19330;DHT22;9799;48.214;16.388;2022-08-25T12:40:53;27.40;99.90
19330;DHT22;9799;48.214;16.388;2022-08-25T12:44:34;27.50;99.90
19330;DHT22;9799;48.214;16.388;2022-08-25T12:52:04;27.70;99.90
19330;DHT22;9799;48.214;16.388;2022-08-25T12:55:26;27.90;99.90
19330;DHT22;9799;48.214;16.388;2022-08-25T12:58:53;28.10;99.90
19330;DHT22;9799;48.214;16.388;2022-08-25T13:02:45;28.10;99.90
19330;DHT22;9799;48.214;16.388;2022-08-25T13:06:30;28.00;99.90
19330;DHT22;9799;48.214;16.388;2022-08-25T13:10:25;28.20;99.90
19330;DHT22;9799;48.214;16.388;2022-08-25T13:13:51;28.30;99.90
19330;DHT22;9799;48.214;16.388;2022-08-25T13:17:25;28.10;99.90
19330;DHT22;9799;48.214;16.388;2022-08-25T13:20:49;27.80;99.90
19330;DHT22;9799;48.214;16.388;2022-08-25T13:24:15;28.10;99.90
19330;DHT22;9799;48.214;16.388;2022-08-25T13:27:39;28.10;99.90
19330;DHT22;9799;48.214;16.388;2022-08-25T13:31:06;27.90;99.90
19330;DHT22;9799;48.214;16.388;2022-08-25T13:34:30;27.90;99.90
19330;DHT22;9799;48.214;16.388;2022-08-25T13:37:52;27.80;99.90
19330;DHT22;9799;48.214;16.388;2022-08-25T13:41:19;27.90;99.90
19330;DHT22;9799;48.214;16.388;2022-08-25T13:44:43;27.90;99.90
19330;DHT22;9799;48.214;16.388;2022-08-25T13:48:05;28.10;99.90
19330;DHT22;9799;48.214;16.388;2022-08-25T13:51:29;28.00;99.90
19330;DHT22;9799;48.214;16.388;2022-08-25T13:54:55;27.80;99.90
19330;DHT22;9799;48.214;16.388;2022-08-25T13:58:20;27.80;99.90
19330;DHT22;9799;48.214;16.388;2022-08-25T14:01:45;28.00;99.90
19330;DHT22;9799;48.214;16.388;2022-08-25T14:05:07;28.10;99.90
19330;DHT22;9799;48.214;16.388;2022-08-25T14:08:31;28.20;99.90
19330;DHT22;9799;48.214;16.388;2022-08-25T14:11:55;28.00;99.90
19330;DHT22;9799;48.214;16.388;2022-08-25T14:15:27;28.00;99.90
19330;DHT22;9799;48.214;16.388;2022-08-25T14:18:54;28.10;99.90
19330;DHT22;9799;48.214;16.388;2022-08-25T14:22:16;28.10;99.90
19330;DHT22;9799;48.214;16.388;2022-08-25T14:25:37;28.20;99.90
19330;DHT22;9799;48.214;16.388;2022-08-25T14:28:59;28.30;99.90
19330;DHT22;9799;48.214;16.388;2022-08-25T14:32:20;28.40;99.90
19330;DHT22;9799;48.214;16.388;2022-08-25T14:35:50;28.50;99.90
19330;DHT22;9799;48.214;16.388;2022-08-25T14:39:11;28.60;99.90
19330;DHT22;9799;48.214;16.388;2022-08-25T14:42:33;28.60;99.90
19330;DHT22;9799;48.214;16.388;2022-08-25T14:45:54;28.60;99.90
19330;DHT22;9799;48.214;16.388;2022-08-25T14:49:18;28.50;99.90
19330;DHT22;9799;48.214;16.388;2022-08-25T14:52:42;28.60;99.90
19330;DHT22;9799;48.214;16.388;2022-08-25T14:56:04;28.60;99.90
19330;DHT22;9799;48.214;16.388;2022-08-25T14:59:25;28.60;99.90
19330;DHT22;9799;48.214;16.388;2022-08-25T15:02:48;28.60;99.90
19330;DHT22;9799;48.214;16.388;2022-08-25T15:06:12;28.60;99.90
19330;DHT22;9799;48.214;16.388;2022-08-25T15:09:35;28.60;99.90
19330;DHT22;9799;48.214;16.388;2022-08-25T15:12:55;28.60;99.90
19330;DHT22;9799;48.214;16.388;2022-08-25T15:16:26;28.60;99.90
19330;DHT22;9799;48.214;16.388;2022-08-25T15:19:47;28.70;99.90
19330;DHT22;9799;48.214;16.388;2022-08-25T15:23:08;28.60;99.90
19330;DHT22;9799;48.214;16.388;2022-08-25T15:26:32;28.60;99.90
19330;DHT22;9799;48.214;16.388;2022-08-25T15:29:54;28.60;99.90
19330;DHT22;9799;48.214;16.388;2022-08-25T15:33:15;28.50;99.90
19330;DHT22;9799;48.214;16.388;2022-08-25T15:36:37;28.50;99.90
19330;DHT22;9799;48.214;16.388;2022-08-25T15:39:58;28.50;99.90
19330;DHT22;9799;48.214;16.388;2022-08-25T15:43:21;28.50;99.90
19330;DHT22;9799;48.214;16.388;2022-08-25T15:46:42;28.50;99.90
19330;DHT22;9799;48.214;16.388;2022-08-25T15:50:06;28.40;99.90
19330;DHT22;9799;48.214;16.388;2022-08-25T15:53:27;28.40;99.90
19330;DHT22;9799;48.214;16.388;2022-08-25T15:56:49;28.40;99.90
19330;DHT22;9799;48.214;16.388;2022-08-25T16:00:13;28.40;99.90
19330;DHT22;9799;48.214;16.388;2022-08-25T16:03:34;28.40;99.90
19330;DHT22;9799;48.214;16.388;2022-08-25T16:06:55;28.30;99.90
19330;DHT22;9799;48.214;16.388;2022-08-25T16:10:17;28.30;99.90
19330;DHT22;9799;48.214;16.388;2022-08-25T16:13:38;28.30;99.90
19330;DHT22;9799;48.214;16.388;2022-08-25T16:17:00;28.20;99.90
19330;DHT22;9799;48.214;16.388;2022-08-25T16:20:22;28.20;99.90
19330;DHT22;9799;48.214;16.388;2022-08-25T16:23:43;28.10;99.90
19330;DHT22;9799;48.214;16.388;2022-08-25T16:27:05;28.00;99.90
19330;DHT22;9799;48.214;16.388;2022-08-25T16:30:26;27.90;99.90
19330;DHT22;9799;48.214;16.388;2022-08-25T16:33:48;27.90;99.90
19330;DHT22;9799;48.214;16.388;2022-08-25T16:37:10;27.90;99.90
19330;DHT22;9799;48.214;16.388;2022-08-25T16:40:31;27.90;99.90
19330;DHT22;9799;48.214;16.388;2022-08-25T16:43:52;27.70;99.90
19330;DHT22;9799;48.214;16.388;2022-08-25T16:47:14;27.70;99.90
19330;DHT22;9799;48.214;16.388;2022-08-25T16:50:37;27.60;99.90
19330;DHT22;9799;48.214;16.388;2022-08-25T16:53:59;27.50;99.90
19330;DHT22;9799;48.214;16.388;2022-08-25T16:57:38;27.50;99.90
19330;DHT22;9799;48.214;16.388;2022-08-25T17:01:04;27.50;99.90
19330;DHT22;9799;48.214;16.388;2022-08-25T17:04:25;27.40;99.90
19330;DHT22;9799;48.214;16.388;2022-08-25T17:07:48;27.40;99.90
19330;DHT22;9799;48.214;16.388;2022-08-25T17:11:25;27.30;99.90
19330;DHT22;9799;48.214;16.388;2022-08-25T17:14:46;27.20;99.90
19330;DHT22;9799;48.214;16.388;2022-08-25T17:18:08;27.10;99.90
19330;DHT22;9799;48.214;16.388;2022-08-25T17:21:32;27.10;99.90
19330;DHT22;9799;48.214;16.388;2022-08-25T17:24:55;27.00;99.90
19330;DHT22;9799;48.214;16.388;2022-08-25T17:28:17;27.00;99.90
19330;DHT22;9799;48.214;16.388;2022-08-25T17:31:38;27.00;99.90
19330;DHT22;9799;48.214;16.388;2022-08-25T17:35:02;26.90;99.90
19330;DHT22;9799;48.214;16.388;2022-08-25T17:38:25;26.90;99.90
19330;DHT22;9799;48.214;16.388;2022-08-25T17:41:48;26.80;99.90
19330;DHT22;9799;48.214;16.388;2022-08-25T17:45:10;26.80;99.90
19330;DHT22;9799;48.214;16.388;2022-08-25T17:48:31;26.70;99.90
19330;DHT22;9799;48.214;16.388;2022-08-25T17:51:52;26.60;99.90
19330;DHT22;9799;48.214;16.388;2022-08-25T17:55:14;26.50;99.90
19330;DHT22;9799;48.214;16.388;2022-08-25T17:58:36;26.50;99.90
19330;DHT22;9799;48.214;16.388;2022-08-25T18:01:58;26.40;99.90
19330;DHT22;9799;48.214;16.388;2022-08-25T18:05:19;26.40;99.90
19330;DHT22;9799;48.214;16.388;2022-08-25T18:08:41;26.30;99.90
19330;DHT22;9799;48.214;16.388;2022-08-25T18:12:03;26.30;99.90
19330;DHT22;9799;48.214;16.388;2022-08-25T18:15:26;26.30;99.90
19330;DHT22;9799;48.214;16.388;2022-08-25T18:18:47;26.20;99.90
19330;DHT22;9799;48.214;16.388;2022-08-25T18:22:08;26.20;99.90
19330;DHT22;9799;48.214;16.388;2022-08-25T18:25:29;26.20;99.90
19330;DHT22;9799;48.214;16.388;2022-08-25T18:28:51;26.10;99.90
19330;DHT22;9799;48.214;16.388;2022-08-25T18:32:14;26.00;99.90
19330;DHT22;9799;48.214;16.388;2022-08-25T18:35:35;26.00;99.90
19330;DHT22;9799;48.214;16.388;2022-08-25T18:38:57;25.90;99.90
19330;DHT22;9799;48.214;16.388;2022-08-25T18:42:36;25.90;99.90
19330;DHT22;9799;48.214;16.388;2022-08-25T18:45:57;25.80;99.90
19330;DHT22;9799;48.214;16.388;2022-08-25T18:49:20;25.70;99.90
19330;DHT22;9799;48.214;16.388;2022-08-25T18:52:41;25.70;99.90
19330;DHT22;9799;48.214;16.388;2022-08-25T18:56:03;25.70;99.90
19330;DHT22;9799;48.214;16.388;2022-08-25T18:59:24;25.70;99.90
19330;DHT22;9799;48.214;16.388;2022-08-25T19:02:45;25.70;99.90
19330;DHT22;9799;48.214;16.388;2022-08-25T19:06:08;25.70;99.90
19330;DHT22;9799;48.214;16.388;2022-08-25T19:09:31;25.60;99.90
19330;DHT22;9799;48.214;16.388;2022-08-25T19:12:52;25.60;99.90
19330;DHT22;9799;48.214;16.388;2022-08-25T19:16:16;25.60;99.90
19330;DHT22;9799;48.214;16.388;2022-08-25T19:19:37;25.50;99.90
19330;DHT22;9799;48.214;16.388;2022-08-25T19:23:00;25.50;99.90
19330;DHT22;9799;48.214;16.388;2022-08-25T19:26:22;25.40;99.90
19330;DHT22;9799;48.214;16.388;2022-08-25T19:29:43;25.40;99.90
19330;DHT22;9799;48.214;16.388;2022-08-25T19:33:05;25.40;99.90
19330;DHT22;9799;48.214;16.388;2022-08-25T19:36:28;25.40;99.90
19330;DHT22;9799;48.214;16.388;2022-08-25T19:39:51;25.40;99.90
19330;DHT22;9799;48.214;16.388;2022-08-25T19:43:13;25.30;99.90
19330;DHT22;9799;48.214;16.388;2022-08-25T19:46:35;25.30;99.90
19330;DHT22;9799;48.214;16.388;2022-08-25T19:49:57;25.20;99.90
19330;DHT22;9799;48.214;16.388;2022-08-25T19:53:18;25.20;99.90
19330;DHT22;9799;48.214;16.388;2022-08-25T19:56:41;25.20;99.90
19330;DHT22;9799;48.214;16.388;2022-08-25T20:00:05;25.20;99.90
19330;DHT22;9799;48.214;16.388;2022-08-25T20:03:26;25.10;99.90
19330;DHT22;9799;48.214;16.388;2022-08-25T20:06:48;25.10;99.90
19330;DHT22;9799;48.214;16.388;2022-08-25T20:10:10;25.00;99.90
19330;DHT22;9799;48.214;16.388;2022-08-25T20:13:33;25.00;99.90
19330;DHT22;9799;48.214;16.388;2022-08-25T20:16:54;25.00;99.90
19330;DHT22;9799;48.214;16.388;2022-08-25T20:20:17;25.00;99.90
19330;DHT22;9799;48.214;16.388;2022-08-25T20:23:40;24.90;99.90
19330;DHT22;9799;48.214;16.388;2022-08-25T20:27:20;24.90;99.90
19330;DHT22;9799;48.214;16.388;2022-08-25T20:30:43;24.80;99.90
19330;DHT22;9799;48.214;16.388;2022-08-25T20:34:05;24.80;99.90
19330;DHT22;9799;48.214;16.388;2022-08-25T20:37:27;24.80;99.90
19330;DHT22;9799;48.214;16.388;2022-08-25T20:40:48;24.70;99.90
19330;DHT22;9799;48.214;16.388;2022-08-25T20:44:09;24.70;99.90
19330;DHT22;9799;48.214;16.388;2022-08-25T20:47:32;24.70;99.90
19330;DHT22;9799;48.214;16.388;2022-08-25T20:50:54;24.70;99.90
19330;DHT22;9799;48.214;16.388;2022-08-25T20:54:15;24.70;99.90
19330;DHT22;9799;48.214;16.388;2022-08-25T20:57:37;24.70;99.90
19330;DHT22;9799;48.214;16.388;2022-08-25T21:00:58;24.60;99.90
19330;DHT22;9799;48.214;16.388;2022-08-25T21:04:23;24.50;99.90
19330;DHT22;9799;48.214;16.388;2022-08-25T21:07:45;24.40;99.90
19330;DHT22;9799;48.214;16.388;2022-08-25T21:11:06;24.50;99.90
19330;DHT22;9799;48.214;16.388;2022-08-25T21:14:27;24.40;99.90
19330;DHT22;9799;48.214;16.388;2022-08-25T21:17:49;24.40;99.90
19330;DHT22;9799;48.214;16.388;2022-08-25T21:21:13;24.30;99.90
19330;DHT22;9799;48.214;16.388;2022-08-25T21:24:34;24.30;99.90
19330;DHT22;9799;48.214;16.388;2022-08-25T21:27:56;24.20;99.90
19330;DHT22;9799;48.214;16.388;2022-08-25T21:31:21;24.20;99.90
19330;DHT22;9799;48.214;16.388;2022-08-25T21:34:42;24.10;99.90